createdAt,value
2017-08-06T00:02:04.403Z,90.60
2017-08-06T00:04:32.488Z,90.60
2017-08-06T00:07:00.576Z,91.00
2017-08-06T00:09:28.654Z,90.70
2017-08-06T00:11:56.720Z,91.10
2017-08-06T00:14:24.796Z,90.70
2017-08-06T00:16:52.862Z,90.60
2017-08-06T00:19:20.930Z,90.90
2017-08-06T00:21:49.026Z,91.00
2017-08-06T00:24:17.855Z,91.00
2017-08-06T00:26:45.935Z,91.00
2017-08-06T00:29:14.010Z,91.30
2017-08-06T00:31:42.087Z,91.20
2017-08-06T00:34:10.174Z,91.00
2017-08-06T00:36:38.278Z,90.90
2017-08-06T00:39:07.090Z,90.80
2017-08-06T00:41:35.187Z,90.80
2017-08-06T00:44:03.255Z,91.00
2017-08-06T00:46:31.335Z,91.00
2017-08-06T00:48:59.398Z,90.90
2017-08-06T00:51:27.455Z,90.70
2017-08-06T00:53:55.526Z,90.20
2017-08-06T00:56:23.588Z,90.40
2017-08-06T00:58:51.671Z,90.40
2017-08-06T01:01:19.749Z,90.10
2017-08-06T01:03:47.831Z,90.20
2017-08-06T01:06:15.895Z,90.20
2017-08-06T01:08:43.947Z,90.30
2017-08-06T01:11:12.025Z,90.30
2017-08-06T01:13:40.087Z,90.10
2017-08-06T01:16:08.171Z,90.10
2017-08-06T01:18:36.231Z,89.80
2017-08-06T01:21:04.292Z,89.30
2017-08-06T01:23:32.374Z,89.80
2017-08-06T01:26:00.468Z,88.80
2017-08-06T01:28:28.522Z,89.00
2017-08-06T01:30:56.586Z,89.70
2017-08-06T01:33:24.679Z,89.00
2017-08-06T01:35:52.751Z,89.40
2017-08-06T01:38:20.795Z,89.30
2017-08-06T01:40:48.878Z,89.50
2017-08-06T01:43:16.961Z,89.00
2017-08-06T01:45:45.051Z,88.20
2017-08-06T01:48:13.896Z,88.70
2017-08-06T01:50:41.945Z,88.70
2017-08-06T01:53:10.040Z,88.90
2017-08-06T01:55:38.096Z,89.40
2017-08-06T01:58:06.170Z,88.70
2017-08-06T02:00:34.491Z,89.20
2017-08-06T02:03:02.587Z,89.50
2017-08-06T02:05:30.672Z,89.40
2017-08-06T02:07:58.730Z,88.60
2017-08-06T02:10:26.827Z,89.20
2017-08-06T02:12:54.904Z,88.20
2017-08-06T02:15:22.971Z,88.10
2017-08-06T02:17:51.030Z,86.70
2017-08-06T02:20:19.111Z,87.50
2017-08-06T02:22:47.179Z,87.30
2017-08-06T02:25:15.250Z,88.20
2017-08-06T02:27:43.323Z,87.40
2017-08-06T02:30:11.383Z,87.70
2017-08-06T02:32:39.443Z,87.30
2017-08-06T02:35:07.543Z,88.30
2017-08-06T02:37:35.582Z,88.40
2017-08-06T02:40:03.651Z,87.90
2017-08-06T02:42:31.731Z,87.30
2017-08-06T02:44:59.800Z,87.60
2017-08-06T02:47:27.872Z,88.50
2017-08-06T02:49:55.988Z,88.20
2017-08-06T02:52:24.803Z,88.30
2017-08-06T02:54:52.877Z,88.30
2017-08-06T02:57:20.954Z,88.70
2017-08-06T02:59:49.071Z,87.80
2017-08-06T03:02:17.135Z,88.20
2017-08-06T03:04:45.208Z,88.20
2017-08-06T03:07:13.298Z,87.30
2017-08-06T03:09:41.358Z,87.10
2017-08-06T03:12:09.427Z,86.80
2017-08-06T03:14:37.512Z,86.30
2017-08-06T03:17:05.579Z,86.40
2017-08-06T03:19:33.655Z,86.70
2017-08-06T03:22:01.731Z,86.50
2017-08-06T03:24:29.811Z,86.60
2017-08-06T03:26:57.902Z,86.40
2017-08-06T03:29:25.975Z,86.60
2017-08-06T03:31:54.034Z,86.30
2017-08-06T03:34:22.113Z,86.10
2017-08-06T03:36:50.193Z,85.60
2017-08-06T03:39:18.271Z,85.50
2017-08-06T03:41:47.103Z,85.90
2017-08-06T03:44:15.179Z,85.70
2017-08-06T03:46:43.245Z,85.40
2017-08-06T03:49:11.315Z,85.70
2017-08-06T03:51:39.414Z,86.00
2017-08-06T03:54:07.474Z,86.40
2017-08-06T03:56:35.551Z,86.40
2017-08-06T03:59:03.616Z,86.40
2017-08-06T04:01:31.698Z,86.90
2017-08-06T04:03:59.762Z,86.70
2017-08-06T04:06:27.827Z,86.50
2017-08-06T04:08:55.900Z,86.80
2017-08-06T04:11:23.963Z,86.10
2017-08-06T04:13:52.018Z,85.70
2017-08-06T04:16:20.094Z,85.70
2017-08-06T04:18:48.168Z,85.70
2017-08-06T04:21:16.260Z,85.90
2017-08-06T04:23:44.334Z,85.60
2017-08-06T04:26:13.162Z,85.20
2017-08-06T04:28:41.235Z,85.10
2017-08-06T04:31:09.308Z,85.10
2017-08-06T04:33:37.390Z,85.30
2017-08-06T04:36:05.469Z,85.60
2017-08-06T04:38:33.538Z,85.90
2017-08-06T04:41:01.593Z,86.30
2017-08-06T04:43:29.687Z,85.90
2017-08-06T04:45:57.748Z,85.00
2017-08-06T04:48:25.814Z,84.80
2017-08-06T04:50:53.886Z,85.30
2017-08-06T04:53:21.954Z,85.50
2017-08-06T04:55:50.027Z,86.20
2017-08-06T04:58:18.103Z,86.80
2017-08-06T05:00:46.196Z,86.60
2017-08-06T05:03:14.283Z,86.00
2017-08-06T05:05:42.351Z,86.10
2017-08-06T05:08:11.200Z,86.60
2017-08-06T05:10:39.257Z,86.50
2017-08-06T05:13:07.355Z,86.70
2017-08-06T05:15:35.407Z,87.00
2017-08-06T05:18:03.463Z,87.30
2017-08-06T05:20:31.542Z,88.00
2017-08-06T05:22:59.595Z,87.70
2017-08-06T05:25:27.684Z,88.00
2017-08-06T05:27:55.739Z,87.90
2017-08-06T05:30:23.835Z,90.00
2017-08-06T05:32:51.906Z,90.60
2017-08-06T05:35:19.984Z,90.80
2017-08-06T05:37:48.063Z,91.00
2017-08-06T05:40:16.134Z,91.10
2017-08-06T05:42:44.221Z,91.00
2017-08-06T05:45:12.304Z,90.80
2017-08-06T05:47:41.145Z,90.50
2017-08-06T05:50:09.212Z,90.80
2017-08-06T05:52:37.289Z,90.80
2017-08-06T05:55:05.365Z,90.90
2017-08-06T05:57:33.430Z,91.40
2017-08-06T06:00:01.536Z,91.30
2017-08-06T06:02:29.603Z,91.10
2017-08-06T06:04:57.674Z,91.50
2017-08-06T06:07:25.759Z,91.50
2017-08-06T06:09:53.812Z,92.00
2017-08-06T06:12:22.651Z,93.00
2017-08-06T06:14:50.723Z,92.70
2017-08-06T06:17:18.789Z,92.20
2017-08-06T06:19:46.883Z,92.60
2017-08-06T06:22:14.947Z,92.80
2017-08-06T06:24:43.027Z,92.60
2017-08-06T06:27:11.100Z,92.80
2017-08-06T06:29:39.160Z,92.90
2017-08-06T06:32:07.246Z,93.30
2017-08-06T06:34:35.316Z,92.70
2017-08-06T06:37:03.477Z,93.10
2017-08-06T06:39:31.527Z,93.80
2017-08-06T06:41:59.603Z,93.60
2017-08-06T06:44:27.677Z,93.20
2017-08-06T06:46:55.747Z,92.90
2017-08-06T06:49:23.827Z,93.00
2017-08-06T06:51:51.891Z,93.20
2017-08-06T06:54:19.960Z,93.00
2017-08-06T06:56:48.063Z,92.30
2017-08-06T06:59:16.150Z,92.10
2017-08-06T07:01:44.979Z,91.90
2017-08-06T07:04:13.067Z,91.80
2017-08-06T07:06:41.140Z,92.60
2017-08-06T07:09:09.232Z,92.30
2017-08-06T07:11:37.310Z,92.30
2017-08-06T07:14:05.385Z,92.40
2017-08-06T07:16:33.474Z,91.30
2017-08-06T07:19:01.539Z,92.30
2017-08-06T07:21:29.620Z,92.30
2017-08-06T07:23:57.691Z,91.90
2017-08-06T07:26:25.770Z,90.80
2017-08-06T07:28:53.822Z,91.10
2017-08-06T07:31:21.957Z,91.50
2017-08-06T07:33:50.791Z,91.00
2017-08-06T07:36:18.857Z,90.90
2017-08-06T07:38:46.943Z,91.50
2017-08-06T07:41:15.835Z,89.80
2017-08-06T07:43:44.671Z,90.70
2017-08-06T07:46:12.743Z,90.70
2017-08-06T07:48:40.860Z,89.70
2017-08-06T07:51:08.947Z,89.20
2017-08-06T07:53:37.782Z,90.40
2017-08-06T07:56:05.870Z,90.00
2017-08-06T07:58:33.943Z,87.90
2017-08-06T08:01:02.036Z,88.10
2017-08-06T08:03:30.113Z,87.10
2017-08-06T08:05:58.189Z,82.90
2017-08-06T08:08:26.245Z,83.80
2017-08-06T08:10:54.335Z,84.80
2017-08-06T08:13:22.410Z,84.00
2017-08-06T08:15:50.516Z,80.70
2017-08-06T08:18:19.367Z,79.90
2017-08-06T08:20:47.629Z,82.50
2017-08-06T08:23:15.914Z,80.00
2017-08-06T08:25:44.198Z,76.00
2017-08-06T08:28:12.566Z,76.80
2017-08-06T08:30:40.648Z,78.00
2017-08-06T08:33:09.304Z,77.40
2017-08-06T08:35:37.523Z,75.90
2017-08-06T08:38:05.690Z,73.60
2017-08-06T08:40:34.874Z,75.00
2017-08-06T08:43:03.190Z,73.80
2017-08-06T08:45:36.345Z,72.20
2017-08-06T08:48:16.556Z,73.30
2017-08-06T09:22:22.094Z,63.70
2017-08-06T09:24:50.884Z,62.20
2017-08-06T09:27:21.054Z,64.80
2017-08-06T09:29:50.207Z,57.40
2017-08-06T09:32:18.468Z,57.90
2017-08-06T09:34:51.563Z,53.50
2017-08-06T09:53:35.238Z,53.40
2017-08-06T09:56:03.439Z,39.40
2017-08-06T09:58:31.688Z,38.30
2017-08-06T10:12:58.627Z,35.60
2017-08-06T10:15:29.481Z,35.50
2017-08-06T10:17:57.873Z,35.00
2017-08-06T10:20:26.098Z,34.10
2017-08-06T10:22:54.301Z,34.60
2017-08-06T10:28:35.304Z,30.20
2017-08-06T10:34:08.412Z,29.70
2017-08-06T10:36:42.858Z,30.30
2017-08-06T10:39:13.796Z,29.90
2017-08-06T11:01:26.396Z,27.20
2017-08-06T11:04:01.607Z,25.60
2017-08-06T11:25:41.190Z,25.60
2017-08-06T11:28:11.372Z,24.40
2017-08-06T11:30:41.189Z,24.30
2017-08-06T11:33:11.852Z,25.60
2017-08-06T11:35:40.859Z,28.30
2017-08-06T11:38:09.124Z,27.40
2017-08-06T11:52:59.895Z,29.40
2017-08-06T11:55:30.738Z,29.80
2017-08-06T12:13:49.547Z,37.70
2017-08-06T12:19:15.724Z,43.10
2017-08-06T12:21:46.918Z,43.40
2017-08-06T12:24:16.286Z,43.70
2017-08-06T12:26:44.577Z,43.70
2017-08-06T12:29:13.036Z,43.80
2017-08-06T12:43:34.464Z,44.50
2017-08-06T12:46:03.095Z,44.70
2017-08-06T13:07:36.927Z,43.90
2017-08-06T13:10:07.762Z,44.20
2017-08-06T13:12:36.346Z,43.90
2017-08-06T13:15:04.680Z,45.30
2017-08-06T13:17:33.000Z,44.20
2017-08-06T13:20:06.483Z,43.50
2017-08-06T13:25:43.782Z,44.20
2017-08-06T13:28:34.484Z,44.20
2017-08-06T13:31:22.458Z,44.60
2017-08-06T13:33:55.025Z,43.80
2017-08-06T13:36:24.707Z,44.80
2017-08-06T13:38:53.593Z,44.60
2017-08-06T13:41:22.557Z,45.50
2017-08-06T13:43:51.714Z,45.40
2017-08-06T13:52:23.574Z,43.60
2017-08-06T14:10:30.243Z,41.80
2017-08-06T14:13:02.832Z,41.80
2017-08-06T14:15:31.564Z,41.50
2017-08-06T14:18:09.916Z,41.50
2017-08-06T14:20:51.242Z,41.10
2017-08-06T14:23:21.106Z,40.80
2017-08-06T14:25:52.071Z,40.80
2017-08-06T14:28:20.458Z,39.60
2017-08-06T14:30:49.496Z,37.50
2017-08-06T14:33:17.708Z,37.50
2017-08-06T14:35:56.715Z,40.00
2017-08-06T14:51:26.305Z,41.40
2017-08-06T14:53:55.271Z,41.20
2017-08-06T14:56:23.567Z,40.30
2017-08-06T14:58:51.772Z,39.20
2017-08-06T15:01:23.815Z,40.40
2017-08-06T15:16:52.272Z,40.40
2017-08-06T15:19:20.746Z,41.30
2017-08-06T15:21:50.652Z,40.30
2017-08-06T15:24:18.802Z,40.30
2017-08-06T15:32:57.691Z,38.50
2017-08-06T15:48:25.950Z,43.10
2017-08-06T15:51:01.334Z,42.30
2017-08-06T16:03:17.049Z,40.50
2017-08-06T16:05:45.943Z,40.40
2017-08-06T16:08:24.812Z,41.10
2017-08-06T16:10:52.930Z,40.40
2017-08-06T16:13:20.998Z,40.00
2017-08-06T16:15:49.064Z,41.40
2017-08-06T16:18:17.150Z,43.00
2017-08-06T16:20:45.223Z,42.70
2017-08-06T16:23:13.291Z,42.80
2017-08-06T16:25:41.372Z,42.60
2017-08-06T16:28:09.428Z,45.00
2017-08-06T16:30:37.502Z,46.30
2017-08-06T16:33:05.554Z,47.00
2017-08-06T16:35:33.622Z,48.20
2017-08-06T16:38:01.725Z,47.60
2017-08-06T16:40:29.786Z,47.60
2017-08-06T16:42:57.890Z,44.60
2017-08-06T16:45:25.958Z,42.30
2017-08-06T16:47:54.040Z,43.60
2017-08-06T16:50:22.109Z,41.50
2017-08-06T16:52:50.169Z,42.90
2017-08-06T16:55:18.904Z,42.10
2017-08-06T16:57:47.025Z,42.30
2017-08-06T17:00:15.129Z,44.40
2017-08-06T17:02:43.946Z,43.20
2017-08-06T17:05:12.047Z,42.80
2017-08-06T17:07:40.115Z,43.20
2017-08-06T17:10:08.190Z,44.20
2017-08-06T17:12:36.255Z,44.00
2017-08-06T17:15:04.310Z,43.20
2017-08-06T17:17:33.161Z,43.20
2017-08-06T17:20:01.246Z,43.20
2017-08-06T17:22:29.306Z,43.70
2017-08-06T17:24:57.397Z,44.70
2017-08-06T17:27:25.469Z,42.80
2017-08-06T17:29:53.543Z,44.20
2017-08-06T17:32:22.386Z,44.70
2017-08-06T17:34:50.508Z,44.70
2017-08-06T17:37:19.341Z,44.70
2017-08-06T17:39:47.416Z,44.70
2017-08-06T17:42:15.504Z,43.90
2017-08-06T17:44:43.561Z,44.30
2017-08-06T17:47:11.652Z,44.60
2017-08-06T17:49:39.726Z,46.20
2017-08-06T17:52:07.811Z,44.70
2017-08-06T17:54:35.904Z,45.60
2017-08-06T17:57:03.987Z,45.90
2017-08-06T17:59:32.110Z,46.00
2017-08-06T18:02:00.183Z,43.40
2017-08-06T18:04:28.258Z,44.60
2017-08-06T18:06:56.345Z,46.20
2017-08-06T18:09:24.439Z,44.90
2017-08-06T18:11:53.310Z,44.70
2017-08-06T18:14:22.138Z,47.80
2017-08-06T18:16:50.585Z,47.60
2017-08-06T18:19:18.656Z,46.90
2017-08-06T18:21:47.485Z,49.80
2017-08-06T18:24:15.949Z,49.70
2017-08-06T18:26:44.775Z,50.90
2017-08-06T18:29:12.883Z,50.80
2017-08-06T18:31:41.713Z,51.00
2017-08-06T18:34:09.817Z,50.20
2017-08-06T18:36:37.859Z,50.20
2017-08-06T18:39:05.963Z,50.80
2017-08-06T18:41:34.046Z,51.20
2017-08-06T18:44:02.116Z,51.30
2017-08-06T18:46:30.985Z,52.00
2017-08-06T18:48:59.099Z,51.90
2017-08-06T18:51:27.138Z,52.30
2017-08-06T18:53:55.226Z,52.10
2017-08-06T18:56:24.098Z,52.40
2017-08-06T18:58:52.181Z,52.30
2017-08-06T19:01:20.251Z,51.80
2017-08-06T19:03:48.342Z,52.60
2017-08-06T19:06:17.216Z,51.80
2017-08-06T19:08:45.279Z,51.70
2017-08-06T19:11:13.354Z,50.90
2017-08-06T19:13:41.447Z,51.80
2017-08-06T19:16:09.493Z,52.40
2017-08-06T19:18:37.587Z,52.30
2017-08-06T19:21:06.446Z,53.20
2017-08-06T19:23:34.487Z,53.10
2017-08-06T19:26:02.593Z,53.50
2017-08-06T19:28:30.677Z,53.20
2017-08-06T19:30:59.511Z,54.60
2017-08-06T19:33:27.586Z,54.60
2017-08-06T19:35:55.755Z,54.00
2017-08-06T19:38:23.829Z,54.30
2017-08-06T19:40:51.908Z,55.00
2017-08-06T19:43:19.966Z,55.00
2017-08-06T19:45:48.329Z,54.90
2017-08-06T19:48:16.408Z,55.10
2017-08-06T19:50:44.487Z,55.50
2017-08-06T19:53:12.559Z,55.60
2017-08-06T19:55:40.617Z,56.00
2017-08-06T19:58:08.705Z,56.00
2017-08-06T20:00:36.754Z,56.20
2017-08-06T20:03:04.836Z,56.30
2017-08-06T20:05:32.905Z,57.00
2017-08-06T20:08:00.982Z,57.70
2017-08-06T20:10:29.142Z,57.30
2017-08-06T20:12:57.964Z,58.20
2017-08-06T20:15:26.027Z,58.10
2017-08-06T20:17:54.123Z,58.10
2017-08-06T20:20:22.197Z,58.20
2017-08-06T20:22:50.306Z,58.10
2017-08-06T20:25:18.384Z,58.00
2017-08-06T20:27:46.421Z,58.80
2017-08-06T20:30:15.270Z,58.90
2017-08-06T20:32:43.370Z,58.80
2017-08-06T20:35:11.452Z,58.60
2017-08-06T20:37:39.525Z,59.50
2017-08-06T20:40:08.366Z,60.00
2017-08-06T20:42:36.458Z,60.00
2017-08-06T20:45:04.510Z,60.00
2017-08-06T20:47:32.594Z,60.30
2017-08-06T20:50:00.655Z,60.70
2017-08-06T20:52:28.760Z,61.70
2017-08-06T20:54:56.836Z,62.20
2017-08-06T20:57:24.901Z,62.80
2017-08-06T20:59:53.036Z,63.40
2017-08-06T21:02:21.134Z,62.80
2017-08-06T21:04:49.193Z,62.70
2017-08-06T21:07:17.247Z,63.70
2017-08-06T21:09:45.301Z,64.80
2017-08-06T21:12:13.449Z,65.30
2017-08-06T21:14:41.495Z,65.70
2017-08-06T21:17:09.551Z,65.60
2017-08-06T21:19:38.415Z,64.70
2017-08-06T21:22:06.795Z,64.60
2017-08-06T21:24:34.863Z,64.30
2017-08-06T21:27:03.193Z,64.50
2017-08-06T21:29:31.282Z,64.30
2017-08-06T21:31:59.838Z,63.90
2017-08-06T21:34:27.920Z,64.00
2017-08-06T21:36:56.000Z,64.50
2017-08-06T21:39:24.067Z,65.20
2017-08-06T21:41:52.222Z,65.50
2017-08-06T21:44:21.024Z,65.80
2017-08-06T21:46:49.083Z,65.70
2017-08-06T21:49:17.152Z,65.70
2017-08-06T21:51:45.234Z,66.20
2017-08-06T21:54:13.333Z,66.70
2017-08-06T21:56:41.370Z,66.40
2017-08-06T21:59:09.456Z,66.20
2017-08-06T22:01:37.533Z,66.40
2017-08-06T22:04:05.602Z,67.40
2017-08-06T22:06:33.678Z,67.20
2017-08-06T22:09:01.735Z,67.00
2017-08-06T22:11:29.803Z,66.80
2017-08-06T22:13:57.881Z,65.50
2017-08-06T22:16:25.947Z,65.50
2017-08-06T22:18:54.023Z,66.00
2017-08-06T22:21:22.843Z,66.60
2017-08-06T22:23:50.903Z,66.60
2017-08-06T22:26:18.971Z,66.40
2017-08-06T22:28:47.038Z,66.60
2017-08-06T22:31:15.118Z,66.80
2017-08-06T22:33:43.182Z,66.90
2017-08-06T22:36:11.266Z,67.10
2017-08-06T22:38:39.350Z,66.80
2017-08-06T22:41:07.430Z,67.10
2017-08-06T22:43:35.482Z,67.50
2017-08-06T22:46:03.551Z,67.30
2017-08-06T22:48:31.625Z,66.80
2017-08-06T22:50:59.684Z,66.70
2017-08-06T22:53:27.766Z,66.50
2017-08-06T22:55:55.888Z,66.40
2017-08-06T22:58:23.932Z,66.40
2017-08-06T23:00:52.015Z,66.70
2017-08-06T23:03:20.064Z,66.80
2017-08-06T23:05:48.143Z,66.20
2017-08-06T23:08:16.202Z,66.40
2017-08-06T23:10:44.258Z,66.80
2017-08-06T23:13:12.336Z,65.80
2017-08-06T23:15:40.391Z,65.50
2017-08-06T23:18:08.453Z,65.40
2017-08-06T23:20:36.539Z,65.80
2017-08-06T23:23:04.598Z,65.70
2017-08-06T23:25:32.687Z,65.70
2017-08-06T23:28:00.739Z,65.50
2017-08-06T23:30:28.799Z,65.80
2017-08-06T23:32:56.844Z,65.30
2017-08-06T23:35:24.903Z,65.30
2017-08-06T23:37:53.742Z,65.90
2017-08-06T23:40:21.814Z,65.70
2017-08-06T23:42:49.882Z,65.90
2017-08-06T23:45:17.946Z,66.40
2017-08-06T23:47:46.007Z,66.90
2017-08-06T23:50:14.068Z,67.10
2017-08-06T23:52:42.119Z,67.00
2017-08-06T23:55:10.942Z,68.10
2017-08-06T23:57:39.019Z,67.20
